Time;durP1;ratioP1;P1;durP2;ratioP2;P2;SDS_P1;SDS_P2;PMS_P1;PMS_P2;Temp;Humidity;BMP_temperature;BMP_pressure;BME280_temperature;BME280_humidity;BME280_pressure;Samples;Min_cycle;Max_cycle;Signal;HPM_P1;HPM_P2
2024/04/07 00:02:16;;;;;;;17.43;10.37;;;15.20;92.70;;;;;;5033769;28;20641;-58
2024/04/07 00:04:42;;;;;;;14.10;9.70;;;15.20;92.70;;;;;;5031963;28;20230;-57
2024/04/07 00:07:08;;;;;;;14.73;11.20;;;15.20;92.80;;;;;;5039937;28;20230;-58
2024/04/07 00:09:37;;;;;;;18.13;11.43;;;15.30;92.80;;;;;;5030279;28;20463;-58
2024/04/07 00:12:04;;;;;;;16.40;10.80;;;15.20;92.80;;;;;;5027830;28;20517;-58
2024/04/07 00:14:31;;;;;;;12.57;10.73;;;15.20;92.80;;;;;;5022463;28;20701;-58
2024/04/07 00:16:57;;;;;;;15.23;11.27;;;15.20;92.80;;;;;;5035575;28;20208;-58
2024/04/07 00:19:24;;;;;;;16.43;10.40;;;15.20;92.80;;;;;;5033857;28;20211;-58
2024/04/07 00:21:50;;;;;;;13.57;10.70;;;15.20;92.90;;;;;;5036139;28;20198;-58
2024/04/07 00:24:16;;;;;;;14.10;10.70;;;15.20;92.90;;;;;;5028412;28;20593;-57
2024/04/07 00:26:42;;;;;;;17.47;11.30;;;15.20;92.90;;;;;;5028736;28;20262;-58
2024/04/07 00:29:08;;;;;;;12.27;10.10;;;15.20;92.90;;;;;;5039754;28;20647;-58
2024/04/07 00:31:34;;;;;;;15.30;10.47;;;15.30;93.00;;;;;;5018860;28;20207;-58
2024/04/07 00:34:00;;;;;;;14.07;10.57;;;15.20;93.00;;;;;;5035990;28;20200;-58
2024/04/07 00:36:26;;;;;;;15.40;10.77;;;15.20;93.00;;;;;;5032378;28;20198;-58
2024/04/07 00:38:52;;;;;;;11.93;9.73;;;15.30;93.00;;;;;;5031470;28;20285;-58
2024/04/07 00:41:18;;;;;;;16.07;9.87;;;15.20;93.00;;;;;;5034151;28;20199;-58
2024/04/07 00:43:44;;;;;;;15.20;10.93;;;15.20;93.10;;;;;;5030226;28;20218;-58
2024/04/07 00:46:10;;;;;;;17.03;10.77;;;15.20;93.10;;;;;;5027427;28;20207;-58
2024/04/07 00:48:36;;;;;;;16.33;11.13;;;15.30;93.10;;;;;;5031771;28;20232;-58
2024/04/07 00:51:03;;;;;;;16.37;10.27;;;15.30;93.10;;;;;;5034324;28;20226;-58
2024/04/07 00:53:29;;;;;;;16.07;10.20;;;15.30;93.00;;;;;;5037630;28;20603;-58
2024/04/07 00:55:55;;;;;;;15.90;10.13;;;15.30;93.00;;;;;;5035426;28;20203;-58
2024/04/07 00:58:22;;;;;;;16.43;10.80;;;15.20;92.90;;;;;;5034026;28;20205;-58
2024/04/07 01:00:48;;;;;;;12.37;9.60;;;15.20;93.00;;;;;;5033836;28;20242;-58
2024/04/07 01:03:15;;;;;;;12.73;9.63;;;15.20;93.00;;;;;;5036051;28;20223;-58
2024/04/07 01:05:46;;;;;;;13.83;9.60;;;15.20;93.00;;;;;;5028350;28;20334;-58
2024/04/07 01:08:14;;;;;;;12.23;9.33;;;15.20;93.00;;;;;;5038279;28;20218;-58
2024/04/07 01:10:40;;;;;;;13.77;8.30;;;15.20;92.90;;;;;;5038279;28;20198;-58
2024/04/07 01:13:07;;;;;;;9.37;7.73;;;15.20;92.80;;;;;;5040481;28;20205;-58
2024/04/07 01:15:35;;;;;;;12.93;8.50;;;15.20;92.80;;;;;;5042382;28;20228;-58
2024/04/07 01:18:02;;;;;;;15.17;7.97;;;15.20;92.80;;;;;;5038032;28;20250;-58
2024/04/07 01:20:29;;;;;;;11.53;7.43;;;15.10;92.80;;;;;;5037228;28;20214;-58
2024/04/07 01:22:55;;;;;;;12.40;7.83;;;15.10;92.80;;;;;;5038033;28;20210;-58
2024/04/07 01:25:22;;;;;;;11.90;8.03;;;15.00;92.80;;;;;;5039360;28;20786;-58
2024/04/07 01:28:00;;;;;;;12.00;6.90;;;15.00;92.80;;;;;;5035562;28;20247;-58
2024/04/07 01:30:27;;;;;;;16.30;7.83;;;15.00;92.70;;;;;;5038205;28;20226;-57
2024/04/07 01:32:53;;;;;;;9.53;6.60;;;14.90;92.60;;;;;;5042198;28;20199;-58
2024/04/07 01:35:19;;;;;;;8.20;6.77;;;14.90;92.70;;;;;;5038067;28;20245;-58
2024/04/07 01:37:45;;;;;;;10.17;7.40;;;14.80;92.80;;;;;;5036214;28;20203;-58
2024/04/07 01:40:12;;;;;;;10.50;6.83;;;14.80;92.80;;;;;;5039061;28;20203;-57
2024/04/07 01:42:41;;;;;;;13.87;6.40;;;14.70;92.70;;;;;;5029210;28;20293;-57
2024/04/07 01:45:09;;;;;;;8.73;6.33;;;14.60;92.80;;;;;;5034410;28;20199;-58
2024/04/07 01:47:36;;;;;;;12.73;6.47;;;14.60;92.80;;;;;;5040379;28;20242;-58
2024/04/07 01:50:04;;;;;;;11.23;6.03;;;14.60;92.80;;;;;;5031668;28;20282;-58
2024/04/07 01:52:30;;;;;;;9.03;6.03;;;14.50;93.00;;;;;;5040920;28;20208;-58
2024/04/07 01:54:56;;;;;;;12.37;5.97;;;14.40;93.30;;;;;;5037489;28;20233;-58
2024/04/07 01:57:23;;;;;;;7.83;5.27;;;14.40;92.90;;;;;;5037684;28;20544;-58
2024/04/07 01:59:49;;;;;;;10.23;6.20;;;14.30;92.90;;;;;;5036399;28;20204;-57
2024/04/07 02:02:19;;;;;;;9.77;6.17;;;14.30;93.00;;;;;;5034943;28;20641;-58
2024/04/07 02:04:46;;;;;;;9.37;5.97;;;14.20;93.20;;;;;;5032006;28;20282;-58
2024/04/07 02:07:13;;;;;;;9.90;6.47;;;14.20;93.40;;;;;;5036782;28;20869;-58
2024/04/07 02:09:39;;;;;;;8.13;6.47;;;14.10;93.40;;;;;;5040882;28;20195;-58
2024/04/07 02:12:05;;;;;;;10.37;6.53;;;14.10;93.50;;;;;;5036717;28;20191;-58
2024/04/07 02:14:32;;;;;;;9.87;7.07;;;14.00;93.50;;;;;;5039334;28;20213;-58
2024/04/07 02:16:59;;;;;;;10.47;7.00;;;14.00;93.50;;;;;;5037308;28;20287;-58
2024/04/07 02:19:25;;;;;;;11.00;7.37;;;13.90;93.50;;;;;;5035754;28;20232;-58
2024/04/07 02:21:51;;;;;;;11.83;6.63;;;13.90;93.60;;;;;;5038042;28;20204;-58
2024/04/07 02:24:17;;;;;;;12.67;7.13;;;13.80;93.60;;;;;;5029419;28;20647;-57
2024/04/07 02:26:46;;;;;;;9.33;7.30;;;13.80;93.70;;;;;;5030822;28;20372;-57
2024/04/07 02:29:12;;;;;;;11.40;7.57;;;13.80;93.80;;;;;;5039659;28;20222;-57
2024/04/07 02:31:38;;;;;;;9.63;7.67;;;13.70;93.80;;;;;;5040232;28;20230;-58
2024/04/07 02:34:04;;;;;;;7.63;6.67;;;13.70;93.90;;;;;;5034911;28;20204;-58
2024/04/07 02:36:31;;;;;;;8.90;6.83;;;13.70;93.90;;;;;;5035979;28;20641;-58
2024/04/07 02:38:57;;;;;;;12.43;6.97;;;13.60;93.90;;;;;;5030285;28;20199;-58
2024/04/07 02:41:23;;;;;;;10.67;7.13;;;13.60;94.00;;;;;;5040279;28;20240;-58
2024/04/07 02:43:49;;;;;;;7.33;6.60;;;13.60;94.00;;;;;;5046439;28;20203;-58
2024/04/07 02:49:00;;;;;;;8.80;7.07;;;13.60;94.00;;;;;;5031791;28;20200;-58
2024/04/07 02:51:26;;;;;;;13.60;8.50;;;13.60;94.10;;;;;;5039150;28;20237;-58
2024/04/07 02:53:52;;;;;;;11.20;6.63;;;13.50;94.00;;;;;;5039533;28;20252;-58
2024/04/07 02:56:20;;;;;;;11.13;7.20;;;13.50;94.10;;;;;;5032553;28;20207;-58
2024/04/07 02:58:46;;;;;;;10.50;7.33;;;13.50;94.10;;;;;;5033547;28;20224;-58
2024/04/07 03:01:12;;;;;;;9.90;7.07;;;13.50;94.10;;;;;;5033413;28;20242;-58
2024/04/07 03:03:38;;;;;;;10.80;6.63;;;13.40;94.00;;;;;;5041770;28;20223;-59
2024/04/07 03:06:08;;;;;;;10.13;7.30;;;13.50;94.00;;;;;;5032590;28;20199;-58
2024/04/07 03:08:37;;;;;;;10.20;6.93;;;13.40;94.00;;;;;;5032123;28;20314;-60
2024/04/07 03:11:05;;;;;;;9.20;7.07;;;13.40;94.00;;;;;;5038337;28;20214;-58
2024/04/07 03:13:32;;;;;;;8.77;6.83;;;13.30;94.00;;;;;;5035980;28;20645;-58
2024/04/07 03:15:58;;;;;;;7.67;6.33;;;13.30;94.00;;;;;;5037741;28;20633;-57
2024/04/07 03:18:25;;;;;;;8.60;7.17;;;13.30;94.10;;;;;;5030585;28;20286;-57
2024/04/07 03:20:52;;;;;;;8.23;6.80;;;13.30;94.10;;;;;;5032662;28;20285;-57
2024/04/07 03:23:18;;;;;;;12.00;6.60;;;13.20;94.00;;;;;;5031545;28;20200;-58
2024/04/07 03:25:45;;;;;;;6.40;5.73;;;13.20;94.00;;;;;;5040274;28;20221;-56
2024/04/07 03:28:11;;;;;;;9.70;6.33;;;13.20;94.10;;;;;;5039775;28;20258;-57
2024/04/07 03:30:37;;;;;;;12.77;7.43;;;13.20;94.10;;;;;;5035325;28;20241;-58
2024/04/07 03:33:04;;;;;;;9.33;6.53;;;13.20;94.10;;;;;;5039311;28;20198;-58
2024/04/07 03:35:30;;;;;;;12.90;6.40;;;13.10;94.20;;;;;;5034607;28;20203;-58
2024/04/07 03:37:56;;;;;;;8.70;5.70;;;13.10;94.20;;;;;;5036557;28;20195;-58
2024/04/07 03:40:23;;;;;;;7.83;6.27;;;13.10;94.20;;;;;;5032481;28;20304;-58
2024/04/07 03:42:49;;;;;;;10.33;6.77;;;13.10;94.20;;;;;;5032200;28;20231;-58
2024/04/07 03:45:16;;;;;;;15.47;6.73;;;13.10;94.20;;;;;;5029043;28;20267;-58
2024/04/07 03:47:42;;;;;;;13.33;7.80;;;13.10;94.20;;;;;;5035229;28;20225;-58
2024/04/07 03:50:09;;;;;;;9.00;7.27;;;13.10;94.20;;;;;;5042249;28;20649;-58
2024/04/07 03:52:35;;;;;;;10.07;6.80;;;13.10;94.30;;;;;;5029920;28;20244;-58
2024/04/07 03:55:02;;;;;;;8.43;6.03;;;13.00;94.20;;;;;;5038407;28;20268;-58
2024/04/07 03:57:29;;;;;;;9.17;6.10;;;13.00;94.20;;;;;;5039510;28;20203;-58
2024/04/07 03:59:55;;;;;;;7.73;5.70;;;13.00;94.20;;;;;;5038616;28;20210;-58
2024/04/07 04:02:25;;;;;;;7.23;5.87;;;12.90;94.20;;;;;;5015881;28;20300;-58
2024/04/07 04:04:58;;;;;;;13.23;7.17;;;12.90;94.20;;;;;;5030441;28;20356;-58
2024/04/07 04:07:28;;;;;;;10.93;6.40;;;12.90;94.20;;;;;;5032085;28;20257;-58
2024/04/07 04:09:55;;;;;;;8.77;6.43;;;12.90;94.20;;;;;;5038015;28;20194;-58
2024/04/07 04:12:22;;;;;;;8.87;6.73;;;12.90;94.20;;;;;;5033528;28;20206;-58
2024/04/07 04:14:50;;;;;;;10.83;6.27;;;12.90;94.20;;;;;;5032765;28;20214;-58
2024/04/07 04:17:16;;;;;;;10.70;7.10;;;12.90;94.30;;;;;;5034547;28;20252;-58
2024/04/07 04:19:43;;;;;;;12.83;6.87;;;12.90;94.30;;;;;;5038869;28;20689;-58
2024/04/07 04:22:09;;;;;;;12.73;7.30;;;12.90;94.40;;;;;;5036202;28;20202;-58
2024/04/07 04:24:35;;;;;;;8.70;6.50;;;12.80;94.40;;;;;;5029378;28;20229;-58
2024/04/07 04:27:05;;;;;;;13.03;7.37;;;12.80;94.40;;;;;;5037530;28;20222;-58
2024/04/07 04:29:33;;;;;;;10.67;7.30;;;12.80;94.50;;;;;;5035870;28;20290;-58
2024/04/07 04:32:00;;;;;;;11.67;6.93;;;12.80;94.50;;;;;;5036059;28;20294;-58
2024/04/07 04:34:26;;;;;;;9.03;7.27;;;12.80;94.50;;;;;;5035743;28;20198;-58
2024/04/07 04:36:52;;;;;;;15.17;7.60;;;12.90;94.80;;;;;;5028847;28;20655;-58
2024/04/07 04:39:18;;;;;;;13.10;9.20;;;12.90;94.50;;;;;;5033618;28;20555;-58
2024/04/07 04:41:48;;;;;;;13.00;9.70;;;12.90;94.50;;;;;;5039974;28;20317;-59
2024/04/07 04:44:15;;;;;;;8.13;7.07;;;12.80;94.50;;;;;;5038744;28;20236;-58
2024/04/07 04:46:44;;;;;;;13.63;7.37;;;12.90;94.60;;;;;;5038778;28;20281;-58
2024/04/07 04:49:11;;;;;;;11.03;7.50;;;12.90;94.60;;;;;;5038162;28;20199;-58
2024/04/07 04:51:37;;;;;;;10.37;8.53;;;12.90;94.60;;;;;;5032404;28;20209;-58
2024/04/07 04:54:04;;;;;;;12.20;8.43;;;12.90;94.50;;;;;;5033247;28;20300;-58
2024/04/07 04:56:31;;;;;;;10.50;7.63;;;12.90;94.50;;;;;;5032463;28;21041;-58
2024/04/07 04:58:57;;;;;;;13.60;7.60;;;12.80;94.50;;;;;;5030526;28;20276;-58
2024/04/07 05:01:25;;;;;;;10.10;7.73;;;12.80;94.60;;;;;;5029013;28;20242;-58
2024/04/07 05:03:52;;;;;;;10.37;8.37;;;12.90;94.70;;;;;;5036313;28;20217;-58
2024/04/07 05:06:19;;;;;;;12.83;8.83;;;12.90;94.80;;;;;;5035270;28;20240;-58
2024/04/07 05:08:47;;;;;;;13.87;11.10;;;12.90;95.20;;;;;;5040504;28;20312;-58
2024/04/07 05:11:14;;;;;;;12.43;8.77;;;12.90;94.90;;;;;;5038159;28;20210;-58
2024/04/07 05:13:40;;;;;;;13.57;9.07;;;13.00;95.10;;;;;;5037727;28;20630;-58
2024/04/07 05:16:06;;;;;;;9.43;7.47;;;13.00;95.20;;;;;;5036198;28;20202;-58
2024/04/07 05:18:33;;;;;;;11.23;7.63;;;13.10;95.20;;;;;;5036945;28;20203;-58
2024/04/07 05:21:09;;;;;;;10.13;8.20;;;13.10;95.10;;;;;;5029993;28;20237;-58
2024/04/07 05:23:37;;;;;;;11.83;8.30;;;13.30;95.10;;;;;;5032410;28;20216;-58
2024/04/07 05:26:16;;;;;;;10.17;7.80;;;13.30;95.00;;;;;;5036164;28;20191;-58
2024/04/07 05:28:42;;;;;;;9.00;8.10;;;13.50;95.00;;;;;;5038750;28;20249;-58
2024/04/07 05:31:12;;;;;;;11.60;9.63;;;13.60;94.90;;;;;;5036180;28;20299;-58
2024/04/07 05:33:38;;;;;;;10.57;8.67;;;13.60;94.90;;;;;;5021304;28;20648;-58
2024/04/07 05:36:05;;;;;;;11.43;9.03;;;13.70;95.00;;;;;;5032794;28;20210;-58
2024/04/07 05:38:33;;;;;;;11.00;8.47;;;13.80;95.10;;;;;;5039899;28;20267;-58
2024/04/07 05:40:59;;;;;;;13.93;8.13;;;13.90;95.20;;;;;;5031988;28;20237;-58
2024/04/07 05:43:26;;;;;;;11.90;9.63;;;14.00;95.20;;;;;;5037817;28;20240;-58
2024/04/07 05:45:52;;;;;;;13.77;9.90;;;14.20;95.20;;;;;;5035847;28;20254;-58
2024/04/07 05:48:23;;;;;;;16.20;9.63;;;14.30;95.20;;;;;;5040808;28;20235;-58
2024/04/07 05:50:49;;;;;;;11.50;8.50;;;14.40;95.20;;;;;;5038936;28;20190;-58
2024/04/07 05:53:15;;;;;;;13.60;9.30;;;14.60;95.20;;;;;;5034439;28;20218;-58
2024/04/07 05:55:42;;;;;;;15.00;9.23;;;14.70;95.20;;;;;;5038362;28;20249;-58
2024/04/07 05:58:08;;;;;;;11.23;8.33;;;14.90;95.10;;;;;;5039297;28;20202;-58
2024/04/07 06:00:35;;;;;;;12.13;7.83;;;15.00;94.90;;;;;;5039035;28;20258;-58
2024/04/07 06:03:02;;;;;;;11.87;8.33;;;15.10;94.70;;;;;;5031126;28;20215;-58
2024/04/07 06:05:29;;;;;;;9.37;8.23;;;15.20;94.50;;;;;;5057983;28;20595;-58
2024/04/07 06:07:55;;;;;;;10.77;8.23;;;15.30;94.40;;;;;;5036085;28;20301;-58
2024/04/07 06:10:22;;;;;;;9.27;8.27;;;15.40;94.30;;;;;;5039178;28;20527;-58
2024/04/07 06:12:48;;;;;;;11.53;8.80;;;15.50;94.30;;;;;;5038657;28;20203;-58
2024/04/07 06:15:14;;;;;;;11.00;7.63;;;15.60;94.10;;;;;;5032237;28;20199;-58
2024/04/07 06:17:43;;;;;;;12.37;7.40;;;15.70;93.90;;;;;;5033908;28;20657;-58
2024/04/07 06:20:09;;;;;;;11.20;7.67;;;15.80;93.80;;;;;;5042077;28;20236;-58
2024/04/07 06:22:36;;;;;;;7.93;7.13;;;15.90;93.60;;;;;;5039742;28;20522;-58
2024/04/07 06:25:03;;;;;;;12.17;7.27;;;16.00;93.50;;;;;;5037115;28;20226;-58
2024/04/07 06:27:30;;;;;;;8.50;7.30;;;16.20;93.40;;;;;;5034709;28;20211;-58
2024/04/07 06:29:58;;;;;;;12.73;7.47;;;16.30;93.20;;;;;;5041897;28;20199;-58
2024/04/07 06:32:26;;;;;;;11.37;7.63;;;16.40;93.00;;;;;;5037348;28;20229;-58
2024/04/07 06:34:53;;;;;;;9.80;7.50;;;16.50;92.80;;;;;;5038118;28;20653;-58
2024/04/07 06:37:19;;;;;;;8.40;7.47;;;16.60;92.60;;;;;;5031532;28;20199;-59
2024/04/07 06:39:45;;;;;;;10.90;7.60;;;16.70;92.40;;;;;;5036813;28;20214;-58
2024/04/07 06:42:12;;;;;;;8.53;7.40;;;16.80;92.30;;;;;;5037750;28;20230;-58
2024/04/07 06:44:38;;;;;;;7.90;7.00;;;16.80;92.10;;;;;;5039505;28;20235;-59
2024/04/07 06:47:06;;;;;;;8.33;7.23;;;16.80;92.00;;;;;;5037822;28;20295;-59
2024/04/07 06:49:32;;;;;;;10.27;7.10;;;16.90;92.00;;;;;;5032211;28;20207;-58
2024/04/07 06:51:58;;;;;;;7.60;6.17;;;17.00;91.90;;;;;;5029863;28;20198;-58
2024/04/07 06:54:25;;;;;;;8.47;5.83;;;17.00;91.80;;;;;;5038593;28;20207;-58
2024/04/07 06:56:51;;;;;;;8.87;6.33;;;17.10;91.50;;;;;;5036287;28;20825;-58
2024/04/07 06:59:17;;;;;;;8.73;6.20;;;17.20;91.30;;;;;;5030266;28;20279;-58
2024/04/07 07:01:43;;;;;;;9.50;5.63;;;17.20;91.10;;;;;;5031891;28;20388;-58
2024/04/07 07:04:09;;;;;;;8.13;5.83;;;17.30;90.80;;;;;;5038437;28;20251;-58
2024/04/07 07:06:35;;;;;;;8.13;6.17;;;17.40;90.60;;;;;;5033402;28;20229;-59
2024/04/07 07:09:02;;;;;;;7.20;5.10;;;17.50;90.40;;;;;;5034635;28;20605;-59
2024/04/07 07:11:28;;;;;;;7.23;5.50;;;17.50;90.10;;;;;;5032900;28;20206;-58
2024/04/07 07:13:54;;;;;;;7.67;5.90;;;17.60;90.00;;;;;;5020929;28;20201;-58
2024/04/07 07:16:20;;;;;;;8.60;6.30;;;17.70;89.80;;;;;;5037776;28;20250;-58
2024/04/07 07:18:46;;;;;;;9.27;6.20;;;17.80;89.50;;;;;;5015455;28;20248;-58
2024/04/07 07:21:12;;;;;;;9.83;6.10;;;17.90;89.20;;;;;;5029990;28;20238;-58
2024/04/07 07:23:38;;;;;;;6.33;5.73;;;17.90;89.00;;;;;;5039913;28;20537;-58
2024/04/07 07:26:05;;;;;;;8.20;6.33;;;18.00;88.90;;;;;;5034192;28;20250;-58
2024/04/07 07:28:31;;;;;;;8.90;6.83;;;18.00;88.80;;;;;;5038466;28;20529;-58
2024/04/07 07:30:57;;;;;;;12.60;6.63;;;18.10;88.80;;;;;;5031160;28;20234;-58
2024/04/07 07:33:23;;;;;;;7.83;6.57;;;18.30;89.00;;;;;;5030523;28;20288;-59
2024/04/07 07:35:50;;;;;;;10.60;6.03;;;18.40;89.00;;;;;;5031844;28;20199;-59
2024/04/07 07:38:17;;;;;;;6.80;6.10;;;18.50;88.70;;;;;;5042489;28;20632;-59
2024/04/07 07:40:43;;;;;;;10.20;6.30;;;18.70;88.30;;;;;;5038910;28;20211;-59
2024/04/07 07:43:09;;;;;;;14.73;6.33;;;18.70;87.50;;;;;;5041056;28;20242;-58
2024/04/07 07:45:35;;;;;;;10.13;6.67;;;18.80;87.10;;;;;;5040831;28;20579;-59
2024/04/07 07:48:02;;;;;;;6.80;5.87;;;18.90;86.90;;;;;;5034769;28;20218;-58
2024/04/07 07:50:28;;;;;;;7.27;6.57;;;19.00;86.70;;;;;;5034874;28;20207;-58
2024/04/07 07:52:54;;;;;;;7.13;5.67;;;19.10;86.60;;;;;;5034323;28;20224;-58
2024/04/07 07:55:20;;;;;;;8.53;5.97;;;19.20;86.30;;;;;;5034302;28;20236;-59
2024/04/07 07:57:46;;;;;;;7.53;6.27;;;19.30;86.00;;;;;;5031419;28;20244;-59
2024/04/07 08:00:13;;;;;;;7.43;6.50;;;19.30;85.80;;;;;;5037381;28;20235;-59
2024/04/07 08:02:39;;;;;;;13.90;7.20;;;19.30;85.60;;;;;;5040203;28;20199;-58
2024/04/07 08:05:06;;;;;;;7.87;6.57;;;19.30;85.60;;;;;;5036635;28;20210;-58
2024/04/07 08:07:32;;;;;;;9.93;7.17;;;19.30;85.90;;;;;;5031449;28;20247;-58
2024/04/07 08:09:59;;;;;;;8.33;6.70;;;19.30;86.20;;;;;;5036508;28;20203;-58
2024/04/07 08:12:26;;;;;;;7.57;6.87;;;19.30;86.30;;;;;;5041024;28;20218;-59
2024/04/07 08:14:52;;;;;;;8.27;6.83;;;19.30;86.20;;;;;;5037613;28;20199;-59
2024/04/07 08:17:18;;;;;;;8.40;6.80;;;19.40;86.30;;;;;;5027858;28;20226;-59
2024/04/07 08:19:45;;;;;;;8.60;6.73;;;19.50;86.40;;;;;;5036009;28;20206;-59
2024/04/07 08:22:12;;;;;;;10.17;6.47;;;19.70;86.40;;;;;;5034777;28;20217;-59
2024/04/07 08:24:38;;;;;;;11.53;6.40;;;19.80;86.00;;;;;;5038876;28;20203;-59
2024/04/07 08:27:04;;;;;;;9.27;6.50;;;20.00;86.00;;;;;;5036791;28;20326;-59
2024/04/07 08:29:30;;;;;;;8.50;6.53;;;20.30;85.50;;;;;;5038927;28;20203;-59
2024/04/07 08:31:56;;;;;;;7.03;6.33;;;20.60;84.60;;;;;;5036418;28;20238;-59
2024/04/07 08:34:22;;;;;;;8.10;5.83;;;20.80;83.70;;;;;;5033470;28;20207;-59
2024/04/07 08:36:51;;;;;;;7.37;6.60;;;21.00;82.60;;;;;;5032380;28;20250;-59
2024/04/07 08:39:16;;;;;;;7.30;6.17;;;21.20;81.50;;;;;;5032607;28;20207;-59
2024/04/07 08:41:46;;;;;;;6.93;5.70;;;21.40;80.90;;;;;;5040014;28;20297;-59
2024/04/07 08:44:13;;;;;;;10.30;5.50;;;21.50;80.30;;;;;;5035208;28;20237;-59
2024/04/07 08:46:45;;;;;;;8.37;5.63;;;21.70;80.10;;;;;;5037730;28;20643;-59
2024/04/07 08:49:13;;;;;;;9.70;6.50;;;21.90;79.90;;;;;;5034127;28;20559;-59
2024/04/07 08:51:41;;;;;;;7.43;5.67;;;22.00;79.60;;;;;;5028313;28;20209;-59
2024/04/07 08:54:08;;;;;;;8.23;6.10;;;22.10;79.50;;;;;;5034090;28;20221;-59
2024/04/07 08:56:39;;;;;;;7.30;5.60;;;22.40;79.50;;;;;;5035150;28;20205;-58
2024/04/07 08:59:06;;;;;;;8.40;6.00;;;22.60;78.80;;;;;;5044099;28;20225;-58
2024/04/07 09:01:32;;;;;;;8.13;6.23;;;22.90;77.90;;;;;;5040673;28;20241;-58
2024/04/07 09:04:02;;;;;;;10.00;6.10;;;23.10;76.30;;;;;;5035189;28;20199;-59
2024/04/07 09:06:30;;;;;;;7.57;5.60;;;23.20;75.30;;;;;;5036671;28;20210;-59
2024/04/07 09:08:57;;;;;;;9.80;5.23;;;23.20;75.40;;;;;;5028606;28;20238;-59
2024/04/07 09:11:24;;;;;;;6.37;4.80;;;23.20;75.30;;;;;;5029434;28;20253;-59
2024/04/07 09:13:50;;;;;;;6.97;4.60;;;23.30;74.20;;;;;;5032026;28;20268;-59
2024/04/07 09:16:17;;;;;;;6.63;4.30;;;23.30;72.80;;;;;;5030656;28;20626;-59
2024/04/07 09:18:44;;;;;;;8.73;4.27;;;23.40;72.60;;;;;;5034532;28;20265;-59
2024/04/07 09:21:21;;;;;;;8.40;4.50;;;23.40;72.00;;;;;;5041927;28;20257;-59
2024/04/07 09:23:49;;;;;;;8.07;4.53;;;23.40;71.10;;;;;;5040957;28;20227;-59
2024/04/07 09:26:20;;;;;;;6.90;4.40;;;23.30;71.20;;;;;;5039842;28;20547;-58
2024/04/07 09:28:46;;;;;;;8.57;4.63;;;23.30;71.30;;;;;;5040250;28;20547;-59
2024/04/07 09:31:13;;;;;;;6.67;4.23;;;23.30;71.60;;;;;;5042780;28;20628;-59
2024/04/07 09:33:41;;;;;;;8.50;4.20;;;23.40;71.60;;;;;;5033029;28;20628;-58
2024/04/07 09:36:07;;;;;;;5.17;3.13;;;23.60;68.70;;;;;;5036526;28;20202;-59
2024/04/07 09:38:33;;;;;;;3.87;2.30;;;23.60;68.00;;;;;;5041514;28;20202;-59
2024/04/07 09:41:02;;;;;;;8.77;2.50;;;23.70;66.70;;;;;;5037760;28;20286;-59
2024/04/07 09:43:30;;;;;;;3.47;2.60;;;23.70;64.20;;;;;;5038325;28;20208;-58
2024/04/07 09:45:56;;;;;;;6.00;3.30;;;23.60;63.60;;;;;;5037521;28;20288;-58
2024/04/07 09:48:25;;;;;;;5.93;2.70;;;23.50;63.90;;;;;;5034565;28;20219;-58
2024/04/07 09:51:06;;;;;;;3.83;2.50;;;23.30;65.40;;;;;;5038425;28;20210;-59
2024/04/07 09:53:46;;;;;;;5.73;3.10;;;23.00;65.50;;;;;;5039626;28;20230;-59
2024/04/07 09:56:15;;;;;;;7.77;2.80;;;22.80;65.80;;;;;;5030734;28;20660;-59
2024/04/07 09:58:42;;;;;;;12.90;3.27;;;22.70;65.90;;;;;;5041405;28;20210;-59
2024/04/07 10:01:09;;;;;;;4.67;2.50;;;22.70;66.40;;;;;;5035054;28;20248;-59
2024/04/07 10:03:36;;;;;;;3.00;2.60;;;22.60;66.50;;;;;;5039930;28;20555;-59
2024/04/07 10:06:04;;;;;;;5.13;2.80;;;22.70;66.50;;;;;;5034891;28;20210;-59
2024/04/07 10:08:31;;;;;;;9.50;2.70;;;22.80;67.00;;;;;;5036166;28;20554;-59
2024/04/07 10:10:58;;;;;;;3.07;2.63;;;22.80;67.20;;;;;;5042938;28;20199;-59
2024/04/07 10:13:24;;;;;;;5.63;3.47;;;23.00;66.30;;;;;;5037735;28;20633;-59
2024/04/07 10:15:56;;;;;;;7.67;3.20;;;23.20;65.90;;;;;;5036596;28;20243;-59
2024/04/07 10:18:22;;;;;;;2.97;2.37;;;23.30;66.80;;;;;;5040285;28;20194;-59
2024/04/07 10:20:55;;;;;;;4.43;2.47;;;23.40;66.60;;;;;;5024114;28;20905;-59
2024/04/07 10:23:26;;;;;;;5.03;2.50;;;23.50;66.40;;;;;;5039506;28;20197;-59
2024/04/07 10:26:03;;;;;;;5.27;1.87;;;23.70;64.60;;;;;;5041743;28;20213;-59
2024/04/07 10:28:50;;;;;;;3.27;1.80;;;23.80;63.20;;;;;;5034648;28;20214;-58
2024/04/07 10:31:29;;;;;;;2.10;1.40;;;23.90;62.90;;;;;;5033310;28;20210;-59
2024/04/07 10:33:55;;;;;;;3.77;1.43;;;24.00;63.90;;;;;;5037322;28;20208;-59
2024/04/07 10:36:22;;;;;;;3.63;1.60;;;24.30;64.10;;;;;;5041890;28;20198;-59
2024/04/07 10:38:53;;;;;;;2.47;1.70;;;24.50;63.50;;;;;;5043490;28;20257;-59
2024/04/07 10:41:32;;;;;;;3.07;1.80;;;24.80;62.10;;;;;;5005677;28;20292;-59
2024/04/07 10:44:00;;;;;;;3.17;1.40;;;25.00;61.10;;;;;;5037280;28;20199;-59
2024/04/07 10:46:27;;;;;;;3.50;1.53;;;25.00;61.60;;;;;;5036894;28;20360;-59
2024/04/07 10:48:56;;;;;;;2.80;1.50;;;25.10;61.30;;;;;;5038324;28;20231;-59
2024/04/07 10:51:22;;;;;;;6.33;1.63;;;25.30;60.90;;;;;;5030275;28;20536;-59
2024/04/07 10:53:57;;;;;;;3.53;2.00;;;25.40;60.80;;;;;;5035036;28;20190;-59
2024/04/07 10:56:23;;;;;;;2.00;1.50;;;25.50;60.10;;;;;;5040073;28;20193;-59
2024/04/07 10:58:49;;;;;;;2.77;1.80;;;25.50;59.30;;;;;;5039634;28;20273;-59
2024/04/07 11:01:16;;;;;;;4.67;1.80;;;25.40;59.00;;;;;;5036433;28;20269;-59
2024/04/07 11:03:43;;;;;;;2.63;1.50;;;25.40;59.60;;;;;;5033561;28;20198;-59
2024/04/07 11:06:10;;;;;;;4.80;1.50;;;25.40;59.80;;;;;;5032158;28;20233;-59
2024/04/07 11:08:37;;;;;;;4.87;1.63;;;25.40;59.90;;;;;;5036356;28;20215;-59
2024/04/07 11:11:03;;;;;;;2.83;1.70;;;25.60;58.70;;;;;;5035861;28;20230;-59
2024/04/07 11:13:29;;;;;;;2.63;1.40;;;25.70;57.70;;;;;;5028500;28;20634;-59
2024/04/07 11:15:55;;;;;;;3.50;1.43;;;25.70;56.60;;;;;;5041616;28;20265;-59
2024/04/07 11:18:22;;;;;;;4.83;1.87;;;25.70;56.80;;;;;;5036732;28;20229;-59
2024/04/07 11:20:49;;;;;;;4.87;1.30;;;25.80;57.70;;;;;;5022303;28;20203;-59
2024/04/07 11:23:17;;;;;;;4.10;1.20;;;25.90;57.60;;;;;;5036744;28;20222;-63
2024/04/07 11:25:45;;;;;;;2.33;1.33;;;26.00;57.50;;;;;;5029559;28;20566;-59
2024/04/07 11:28:13;;;;;;;5.83;1.20;;;26.00;56.00;;;;;;5033218;28;20656;-59
2024/04/07 11:30:49;;;;;;;2.73;1.20;;;26.10;56.80;;;;;;5036536;28;20196;-60
2024/04/07 11:33:16;;;;;;;1.87;1.13;;;26.10;56.50;;;;;;5033887;28;20205;-59
2024/04/07 11:35:43;;;;;;;3.37;1.90;;;26.20;55.60;;;;;;5035098;28;20249;-59
2024/04/07 11:38:10;;;;;;;3.60;1.53;;;26.20;55.20;;;;;;5038491;28;20209;-59
2024/04/07 11:40:36;;;;;;;3.93;1.50;;;26.20;55.10;;;;;;5036694;28;20203;-59
2024/04/07 11:43:02;;;;;;;4.63;1.40;;;26.20;56.60;;;;;;5035604;28;20212;-59
2024/04/07 11:45:28;;;;;;;5.33;1.40;;;26.10;57.80;;;;;;5032524;28;20211;-59
2024/04/07 11:47:55;;;;;;;3.20;1.70;;;26.00;56.30;;;;;;5039183;28;20253;-59
2024/04/07 11:50:22;;;;;;;2.80;1.63;;;26.00;55.30;;;;;;5035283;28;20199;-59
2024/04/07 11:52:49;;;;;;;3.53;1.50;;;25.90;56.10;;;;;;5038434;28;20638;-59
2024/04/07 11:55:15;;;;;;;4.60;1.93;;;25.90;56.00;;;;;;5034145;28;20198;-59
2024/04/07 11:57:41;;;;;;;2.30;1.13;;;25.80;54.90;;;;;;5035883;28;20246;-59
2024/04/07 12:00:08;;;;;;;2.03;1.20;;;25.80;55.20;;;;;;5037972;28;20205;-59
2024/04/07 12:02:38;;;;;;;2.43;1.03;;;25.80;56.50;;;;;;5033540;28;20251;-59
2024/04/07 12:05:04;;;;;;;3.20;1.33;;;25.80;55.00;;;;;;5035477;28;20568;-59
2024/04/07 12:07:31;;;;;;;2.37;1.20;;;25.80;54.70;;;;;;5033657;28;20230;-59
2024/04/07 12:09:57;;;;;;;4.30;1.47;;;25.90;55.00;;;;;;5033563;28;20648;-59
2024/04/07 12:12:25;;;;;;;2.43;1.20;;;26.00;53.40;;;;;;5037213;28;20197;-59
2024/04/07 12:14:52;;;;;;;5.10;1.50;;;26.10;53.90;;;;;;5031190;28;20214;-59
2024/04/07 12:17:19;;;;;;;3.70;1.53;;;26.20;55.20;;;;;;5036772;28;20512;-59
2024/04/07 12:19:45;;;;;;;4.43;1.50;;;26.20;56.10;;;;;;5035163;28;20211;-59
2024/04/07 12:22:16;;;;;;;3.17;1.77;;;26.20;56.30;;;;;;5037234;28;20192;-59
2024/04/07 12:24:43;;;;;;;6.20;1.70;;;26.30;56.70;;;;;;5036440;28;20222;-59
2024/04/07 12:27:09;;;;;;;4.67;1.40;;;26.40;56.60;;;;;;5036374;28;20226;-59
2024/04/07 12:29:36;;;;;;;4.93;1.43;;;26.60;56.70;;;;;;5024926;28;20203;-59
2024/04/07 12:32:03;;;;;;;2.47;1.20;;;26.70;54.70;;;;;;5031144;28;20226;-59
2024/04/07 12:34:29;;;;;;;3.83;1.30;;;26.70;53.50;;;;;;5024282;28;20192;-59
2024/04/07 12:36:55;;;;;;;3.77;0.90;;;26.70;54.70;;;;;;5038767;28;20211;-59
2024/04/07 12:39:21;;;;;;;2.40;1.20;;;26.60;56.90;;;;;;5033976;28;20412;-59
2024/04/07 12:41:49;;;;;;;1.40;1.10;;;26.50;56.40;;;;;;5032750;28;20264;-59
2024/04/07 12:44:17;;;;;;;2.00;1.23;;;26.50;55.80;;;;;;5032092;28;20521;-59
2024/04/07 12:46:47;;;;;;;4.53;1.13;;;26.50;55.20;;;;;;5036621;28;20206;-59